Time;durP1;ratioP1;P1;durP2;ratioP2;P2;SDS_P1;SDS_P2;PMS_P1;PMS_P2;Temp;Humidity;BMP_temperature;BMP_pressure;BME280_temperature;BME280_humidity;BME280_pressure;Samples;Min_cycle;Max_cycle;Signal;HPM_P1;HPM_P2
2021/01/28 00:01:24;;;;;;;78.97;18.63;;;2.60;74.10;;;;;;5093679;28;20250;-68
2021/01/28 00:03:50;;;;;;;75.82;16.70;;;2.60;74.50;;;;;;5094632;28;20623;-68
2021/01/28 00:06:16;;;;;;;72.30;17.13;;;2.60;74.80;;;;;;5094526;28;20196;-68
2021/01/28 00:08:43;;;;;;;75.32;18.20;;;2.50;75.80;;;;;;5094228;28;20211;-68
2021/01/28 00:11:09;;;;;;;71.95;15.23;;;2.60;75.50;;;;;;5094625;28;20215;-68
2021/01/28 00:13:37;;;;;;;75.35;16.50;;;2.50;76.10;;;;;;5094040;28;20235;-68
2021/01/28 00:16:03;;;;;;;75.72;18.33;;;2.50;76.60;;;;;;5094276;28;20216;-68
2021/01/28 00:18:29;;;;;;;82.22;18.25;;;2.50;76.90;;;;;;5093500;28;20208;-68
2021/01/28 00:20:56;;;;;;;76.72;17.65;;;2.50;76.90;;;;;;5094101;28;20245;-68
2021/01/28 00:23:22;;;;;;;76.57;17.60;;;2.50;77.20;;;;;;5094088;28;20226;-68
2021/01/28 00:25:49;;;;;;;78.10;19.23;;;2.50;77.70;;;;;;5094025;28;20200;-68
2021/01/28 00:28:18;;;;;;;78.35;19.92;;;2.50;77.90;;;;;;5093738;28;20208;-68
2021/01/28 00:30:48;;;;;;;77.95;19.67;;;2.50;78.30;;;;;;5093847;28;20208;-68
2021/01/28 00:33:17;;;;;;;81.68;20.63;;;2.40;78.70;;;;;;5093713;28;20303;-68
2021/01/28 00:35:45;;;;;;;75.95;18.60;;;2.40;78.90;;;;;;5093772;28;20566;-68
2021/01/28 00:38:14;;;;;;;80.43;20.55;;;2.40;79.30;;;;;;5093778;28;20295;-68
2021/01/28 00:40:40;;;;;;;80.97;20.17;;;2.30;79.30;;;;;;5093724;28;20619;-68
2021/01/28 00:43:07;;;;;;;77.20;18.70;;;2.30;79.80;;;;;;5093290;28;20208;-68
2021/01/28 00:45:34;;;;;;;81.53;20.33;;;2.30;80.00;;;;;;5093609;28;20243;-68
2021/01/28 00:48:01;;;;;;;78.78;18.33;;;2.30;80.50;;;;;;5093712;28;20204;-68
2021/01/28 00:50:30;;;;;;;77.90;20.63;;;2.30;80.90;;;;;;5080122;28;20208;-68
2021/01/28 00:52:57;;;;;;;80.75;19.23;;;2.30;81.60;;;;;;5073005;28;20208;-68
2021/01/28 00:55:24;;;;;;;76.93;19.27;;;2.30;82.00;;;;;;5072964;28;20596;-68
2021/01/28 00:57:50;;;;;;;80.32;19.67;;;2.30;82.60;;;;;;5073332;28;20216;-68
2021/01/28 01:00:22;;;;;;;75.40;18.80;;;2.30;83.30;;;;;;5073237;28;20244;-68
2021/01/28 01:02:49;;;;;;;82.20;19.92;;;2.30;83.60;;;;;;5073023;28;20215;-68
2021/01/28 01:05:18;;;;;;;77.63;18.80;;;2.30;84.00;;;;;;5072998;28;20200;-68
2021/01/28 01:07:46;;;;;;;83.05;21.00;;;2.30;84.60;;;;;;5072984;28;20573;-68
2021/01/28 01:10:21;;;;;;;79.35;18.50;;;2.30;85.10;;;;;;5072702;28;20201;-68
2021/01/28 01:12:48;;;;;;;75.50;17.80;;;2.30;85.30;;;;;;5072560;28;20635;-68
2021/01/28 01:15:14;;;;;;;77.53;18.35;;;2.30;86.00;;;;;;5072225;28;20231;-68
2021/01/28 01:17:41;;;;;;;79.38;18.67;;;2.30;85.50;;;;;;5072636;28;20215;-68
2021/01/28 01:20:09;;;;;;;78.22;17.80;;;2.30;86.50;;;;;;5072588;28;20209;-68
2021/01/28 01:22:36;;;;;;;78.63;18.55;;;2.30;87.10;;;;;;5071834;28;20291;-68
2021/01/28 01:25:04;;;;;;;76.13;16.55;;;2.30;87.20;;;;;;5072440;28;20228;-67
2021/01/28 01:27:30;;;;;;;73.43;15.68;;;2.30;87.40;;;;;;5072660;28;20209;-68
2021/01/28 01:29:56;;;;;;;74.78;18.50;;;2.30;87.50;;;;;;5072410;28;20212;-68
2021/01/28 01:32:23;;;;;;;80.15;17.83;;;2.30;88.90;;;;;;5072474;28;20231;-68
2021/01/28 01:34:49;;;;;;;74.00;16.58;;;2.30;87.10;;;;;;5072126;28;20665;-68
2021/01/28 01:37:15;;;;;;;74.32;16.17;;;2.40;86.80;;;;;;5072243;28;20204;-68
2021/01/28 01:39:43;;;;;;;73.22;15.32;;;2.30;86.50;;;;;;5072395;28;20579;-68
2021/01/28 01:42:09;;;;;;;80.65;15.65;;;2.30;86.50;;;;;;5072272;28;20261;-68
2021/01/28 01:44:35;;;;;;;75.65;16.20;;;2.30;86.50;;;;;;5072253;28;20709;-68
2021/01/28 01:47:18;;;;;;;73.13;16.10;;;2.40;86.80;;;;;;5072200;28;20322;-68
2021/01/28 01:49:45;;;;;;;74.57;16.45;;;2.40;87.20;;;;;;5071921;28;20692;-67
2021/01/28 01:52:13;;;;;;;74.72;16.02;;;2.40;87.40;;;;;;5078638;28;20204;-67
2021/01/28 01:54:45;;;;;;;79.25;17.52;;;2.40;87.90;;;;;;5081766;28;20241;-68
2021/01/28 01:57:24;;;;;;;74.72;15.02;;;2.40;88.30;;;;;;5071973;28;20228;-68
2021/01/28 01:59:54;;;;;;;76.47;16.05;;;2.40;88.90;;;;;;5071914;28;20204;-68
2021/01/28 02:02:22;;;;;;;75.40;15.20;;;2.40;88.90;;;;;;5071767;28;20566;-67
2021/01/28 02:04:58;;;;;;;76.68;15.65;;;2.40;89.00;;;;;;5072004;28;20286;-67
2021/01/28 02:07:27;;;;;;;72.25;14.90;;;2.40;89.20;;;;;;5072269;28;20197;-67
2021/01/28 02:09:54;;;;;;;73.75;15.60;;;2.40;89.60;;;;;;5071892;28;20205;-67
2021/01/28 02:12:20;;;;;;;71.45;14.07;;;2.50;90.00;;;;;;5071649;28;20681;-67
2021/01/28 02:14:48;;;;;;;73.03;14.25;;;2.50;90.10;;;;;;5071442;28;20231;-67
2021/01/28 02:17:18;;;;;;;70.00;14.13;;;2.50;90.30;;;;;;5071907;28;20652;-67
2021/01/28 02:20:00;;;;;;;74.07;14.00;;;2.40;90.40;;;;;;5071553;28;20244;-67
2021/01/28 02:22:33;;;;;;;75.95;16.08;;;2.50;90.50;;;;;;5072434;28;20209;-67
2021/01/28 02:25:05;;;;;;;74.97;16.63;;;2.50;90.60;;;;;;5091771;28;20239;-67
2021/01/28 02:27:33;;;;;;;74.30;14.05;;;2.50;90.80;;;;;;5092250;28;20204;-67
2021/01/28 02:29:59;;;;;;;72.85;15.65;;;2.50;90.90;;;;;;5092092;28;20212;-67
2021/01/28 02:32:25;;;;;;;74.00;17.40;;;2.50;91.00;;;;;;5092065;28;20243;-67
2021/01/28 02:34:52;;;;;;;78.43;17.50;;;2.50;91.10;;;;;;5091898;28;20263;-67
2021/01/28 02:37:21;;;;;;;75.53;16.80;;;2.50;91.30;;;;;;5092039;28;20257;-67
2021/01/28 02:39:48;;;;;;;74.40;15.52;;;2.50;91.30;;;;;;5091616;28;20226;-67
2021/01/28 02:42:17;;;;;;;71.90;14.13;;;2.50;91.30;;;;;;5092375;28;20620;-67
2021/01/28 02:44:44;;;;;;;74.78;16.30;;;2.50;91.50;;;;;;5091701;28;20707;-67
2021/01/28 02:47:11;;;;;;;73.95;15.93;;;2.50;91.60;;;;;;5092063;28;20208;-67
2021/01/28 02:49:37;;;;;;;76.63;14.85;;;2.60;91.60;;;;;;5091953;28;20204;-67
2021/01/28 02:52:04;;;;;;;72.30;14.48;;;2.60;91.70;;;;;;5091725;28;20680;-67
2021/01/28 02:54:37;;;;;;;73.28;15.73;;;2.60;91.80;;;;;;5090651;28;20719;-68
2021/01/28 02:57:04;;;;;;;75.35;13.90;;;2.60;92.00;;;;;;5091984;28;20299;-68
2021/01/28 02:59:30;;;;;;;71.47;13.48;;;2.60;92.10;;;;;;5091479;28;20208;-67
2021/01/28 03:02:05;;;;;;;72.80;14.77;;;2.60;92.10;;;;;;5091365;28;20208;-68
2021/01/28 03:04:31;;;;;;;69.07;13.95;;;2.60;92.20;;;;;;5091360;28;20590;-68
2021/01/28 03:06:58;;;;;;;72.20;15.35;;;2.60;92.50;;;;;;5091505;28;20253;-68
2021/01/28 03:09:24;;;;;;;70.05;12.35;;;2.60;92.60;;;;;;5091480;28;20239;-68
2021/01/28 03:11:50;;;;;;;67.30;11.88;;;2.60;92.60;;;;;;5091450;28;20291;-68
2021/01/28 03:14:17;;;;;;;70.25;11.18;;;2.60;92.70;;;;;;5091316;28;20707;-68
2021/01/28 03:16:43;;;;;;;65.05;10.00;;;2.70;92.80;;;;;;5091319;28;20223;-68
2021/01/28 03:19:11;;;;;;;65.47;10.00;;;2.70;93.10;;;;;;5091110;28;20298;-68
2021/01/28 03:21:38;;;;;;;70.75;10.80;;;2.70;93.00;;;;;;5091255;28;20210;-68
2021/01/28 03:24:05;;;;;;;66.60;10.25;;;2.70;93.20;;;;;;5091259;28;20309;-68
2021/01/28 03:26:31;;;;;;;66.63;10.15;;;2.70;93.20;;;;;;5090174;28;20200;-68
2021/01/28 03:28:58;;;;;;;67.28;10.60;;;2.80;93.40;;;;;;5091122;28;20290;-68
2021/01/28 03:31:24;;;;;;;64.38;9.80;;;2.80;93.50;;;;;;5091294;28;20208;-68
2021/01/28 03:33:50;;;;;;;65.90;10.43;;;2.80;93.50;;;;;;5091012;28;20246;-68
2021/01/28 03:36:18;;;;;;;65.88;10.55;;;2.90;93.70;;;;;;5091280;28;20228;-67
2021/01/28 03:38:44;;;;;;;68.30;10.38;;;2.90;93.70;;;;;;5095057;28;20201;-67
2021/01/28 03:41:10;;;;;;;65.38;10.63;;;2.90;93.80;;;;;;5094909;28;20299;-67
2021/01/28 03:43:37;;;;;;;65.32;9.77;;;2.90;93.80;;;;;;5094609;28;20228;-67
2021/01/28 03:46:03;;;;;;;63.78;8.50;;;2.90;93.90;;;;;;5094837;28;20208;-67
2021/01/28 03:48:29;;;;;;;68.22;9.60;;;2.90;94.00;;;;;;5095036;28;20219;-67
2021/01/28 03:50:56;;;;;;;67.40;9.60;;;2.90;94.20;;;;;;5094945;28;20208;-67
2021/01/28 03:53:23;;;;;;;66.07;10.20;;;2.90;94.20;;;;;;5094672;28;20259;-68
2021/01/28 03:55:49;;;;;;;65.22;9.20;;;3.00;94.30;;;;;;5094507;28;20228;-68
2021/01/28 03:58:15;;;;;;;62.60;8.25;;;3.00;94.30;;;;;;5093475;28;20303;-68
2021/01/28 04:00:42;;;;;;;61.63;7.57;;;3.00;94.50;;;;;;5094612;28;20295;-68
2021/01/28 04:03:08;;;;;;;64.55;7.28;;;3.00;94.40;;;;;;5094197;28;20217;-68
2021/01/28 04:05:34;;;;;;;62.88;7.45;;;3.10;94.50;;;;;;5094347;28;20683;-68
2021/01/28 04:08:01;;;;;;;63.00;7.50;;;3.10;94.60;;;;;;5094269;28;20205;-68
2021/01/28 04:10:31;;;;;;;64.65;8.35;;;3.10;94.70;;;;;;5094300;28;20240;-68
2021/01/28 04:12:57;;;;;;;61.90;7.93;;;3.10;94.70;;;;;;5094089;28;20560;-67
2021/01/28 04:15:24;;;;;;;62.42;7.85;;;3.10;94.70;;;;;;5094011;28;20292;-68
2021/01/28 04:17:52;;;;;;;63.45;7.50;;;3.10;94.90;;;;;;5094105;28;20268;-68
2021/01/28 04:20:21;;;;;;;66.95;8.55;;;3.20;95.50;;;;;;5094344;28;20211;-68
2021/01/28 04:22:48;;;;;;;62.08;7.60;;;3.20;94.90;;;;;;5094284;28;20358;-68
2021/01/28 04:25:15;;;;;;;62.92;8.23;;;3.20;94.90;;;;;;5093930;28;20316;-68
2021/01/28 04:27:42;;;;;;;66.20;8.50;;;3.20;94.90;;;;;;5093033;28;20208;-68
2021/01/28 04:30:11;;;;;;;61.65;7.25;;;3.20;95.10;;;;;;5085235;28;20208;-68
2021/01/28 04:32:37;;;;;;;64.05;7.40;;;3.30;95.30;;;;;;5073478;28;20207;-68
2021/01/28 04:35:05;;;;;;;61.50;7.45;;;3.30;95.20;;;;;;5073708;28;20259;-68
2021/01/28 04:37:31;;;;;;;68.93;8.45;;;3.30;95.50;;;;;;5073500;28;20205;-68
2021/01/28 04:39:57;;;;;;;65.05;8.63;;;3.40;95.80;;;;;;5073504;28;20295;-68
2021/01/28 04:42:31;;;;;;;63.80;7.40;;;3.40;95.30;;;;;;5073508;28;20672;-68
2021/01/28 04:44:58;;;;;;;62.22;7.40;;;3.40;95.40;;;;;;5073661;28;20232;-68
2021/01/28 04:47:25;;;;;;;65.93;9.45;;;3.40;95.30;;;;;;5073461;28;20201;-68
2021/01/28 04:49:55;;;;;;;61.83;7.30;;;3.40;95.50;;;;;;5073432;28;20296;-68
2021/01/28 04:52:23;;;;;;;61.35;7.35;;;3.40;95.60;;;;;;5073373;28;20213;-68
2021/01/28 04:54:52;;;;;;;61.35;6.93;;;3.40;95.60;;;;;;5073563;28;20235;-68
2021/01/28 04:57:19;;;;;;;60.50;6.53;;;3.40;95.40;;;;;;5073055;28;20229;-68
2021/01/28 04:59:50;;;;;;;64.82;7.53;;;3.40;95.40;;;;;;5085861;28;20208;-68
2021/01/28 05:02:20;;;;;;;66.20;8.23;;;3.40;95.30;;;;;;5093265;28;20200;-68
2021/01/28 05:04:52;;;;;;;62.85;8.65;;;3.40;95.30;;;;;;5093611;28;20225;-68
2021/01/28 05:07:22;;;;;;;65.88;7.13;;;3.40;95.60;;;;;;5093778;28;20200;-68
2021/01/28 05:10:07;;;;;;;65.22;7.78;;;3.50;95.40;;;;;;5093078;28;20204;-68
2021/01/28 05:12:34;;;;;;;63.17;7.63;;;3.50;95.20;;;;;;5093272;28;20196;-68
2021/01/28 05:15:17;;;;;;;63.28;8.07;;;3.50;95.20;;;;;;5093259;28;20634;-68
2021/01/28 05:17:56;;;;;;;66.55;8.77;;;3.50;94.90;;;;;;5093162;28;20222;-68
2021/01/28 05:20:25;;;;;;;62.17;7.43;;;3.50;95.00;;;;;;5093285;28;20192;-68
2021/01/28 05:23:00;;;;;;;61.10;7.88;;;3.50;95.10;;;;;;5092987;28;20307;-68
2021/01/28 05:25:38;;;;;;;66.80;9.40;;;3.50;95.20;;;;;;5093120;28;20573;-68
2021/01/28 05:28:25;;;;;;;62.53;8.07;;;3.50;94.90;;;;;;5092864;28;20188;-68
2021/01/28 05:30:52;;;;;;;63.88;8.00;;;3.50;94.80;;;;;;5092086;28;20555;-68
2021/01/28 05:33:36;;;;;;;63.85;9.07;;;3.60;94.70;;;;;;5092536;28;20311;-68
2021/01/28 05:36:11;;;;;;;62.75;7.80;;;3.60;94.50;;;;;;5092672;28;20627;-68
2021/01/28 05:38:39;;;;;;;64.13;8.95;;;3.50;94.30;;;;;;5092942;28;20196;-68
2021/01/28 05:41:07;;;;;;;65.47;8.45;;;3.60;94.20;;;;;;5092513;28;20585;-68
2021/01/28 05:43:36;;;;;;;62.10;7.93;;;3.50;94.00;;;;;;5092577;28;20224;-68
2021/01/28 05:46:16;;;;;;;65.45;8.50;;;3.50;93.90;;;;;;5092429;28;20200;-68
2021/01/28 05:48:46;;;;;;;63.80;8.43;;;3.60;93.90;;;;;;5092451;28;20204;-68
2021/01/28 05:51:15;;;;;;;64.05;7.88;;;3.50;93.80;;;;;;5092366;28;20229;-68
2021/01/28 05:53:58;;;;;;;62.70;8.57;;;3.50;93.70;;;;;;5092641;28;20233;-68
2021/01/28 05:56:26;;;;;;;64.53;7.50;;;3.60;93.70;;;;;;5092479;28;20578;-68
2021/01/28 05:58:59;;;;;;;65.95;7.90;;;3.60;93.60;;;;;;5092199;28;20606;-66
2021/01/28 06:01:36;;;;;;;66.50;10.63;;;3.60;93.70;;;;;;5080117;28;20237;-67
2021/01/28 06:04:19;;;;;;;69.40;11.73;;;3.60;93.70;;;;;;5086907;28;20224;-67
2021/01/28 06:07:21;;;;;;;66.70;10.70;;;3.60;93.60;;;;;;5092317;28;20233;-67
2021/01/28 06:10:12;;;;;;;69.82;9.52;;;3.60;93.70;;;;;;5072119;28;20207;-67
2021/01/28 06:13:05;;;;;;;66.57;9.32;;;3.60;93.70;;;;;;5092352;28;20667;-67
2021/01/28 06:15:38;;;;;;;63.38;8.85;;;3.60;93.70;;;;;;5089443;28;20371;-67
2021/01/28 06:18:26;;;;;;;65.00;8.85;;;3.60;93.70;;;;;;5092383;28;20207;-67
2021/01/28 06:21:09;;;;;;;66.07;9.23;;;3.60;93.80;;;;;;5089468;28;20236;-67
2021/01/28 06:23:49;;;;;;;66.50;9.00;;;3.60;93.80;;;;;;5092229;28;20224;-66
2021/01/28 06:26:25;;;;;;;67.07;10.20;;;3.60;93.70;;;;;;5091947;28;20583;-67
2021/01/28 06:29:29;;;;;;;71.07;10.75;;;3.70;93.70;;;;;;5092427;28;20207;-67
2021/01/28 06:32:13;;;;;;;68.75;11.82;;;3.70;93.70;;;;;;5091214;28;20200;-67
2021/01/28 06:35:02;;;;;;;65.68;10.18;;;3.70;93.60;;;;;;5091669;28;20236;-68
2021/01/28 06:37:45;;;;;;;65.82;10.27;;;3.70;93.60;;;;;;5091986;28;20260;-67
2021/01/28 06:40:18;;;;;;;67.35;10.55;;;3.70;93.50;;;;;;5091703;28;20676;-67
2021/01/28 06:42:52;;;;;;;64.85;9.52;;;3.70;93.60;;;;;;5091893;28;20294;-67
2021/01/28 06:45:21;;;;;;;69.25;10.25;;;3.70;93.40;;;;;;5091789;28;20247;-67
2021/01/28 06:47:52;;;;;;;72.18;11.40;;;3.70;93.40;;;;;;5091946;28;20204;-67
2021/01/28 06:50:25;;;;;;;68.40;10.52;;;3.70;93.30;;;;;;5091869;28;20210;-67
2021/01/28 06:53:07;;;;;;;64.65;9.98;;;3.70;93.30;;;;;;5091624;28;20204;-67
2021/01/28 06:55:41;;;;;;;72.28;11.52;;;3.60;93.20;;;;;;5091709;28;20208;-67
2021/01/28 06:58:20;;;;;;;72.13;11.65;;;3.60;93.10;;;;;;5091926;28;20189;-67
2021/01/28 07:00:50;;;;;;;71.55;12.65;;;3.60;92.90;;;;;;5091887;28;20656;-67
2021/01/28 07:03:29;;;;;;;69.88;12.13;;;3.60;92.90;;;;;;5090449;28;20696;-67
2021/01/28 07:06:03;;;;;;;71.22;10.35;;;3.60;93.00;;;;;;5091364;28;20265;-67
2021/01/28 07:09:11;;;;;;;76.78;13.90;;;3.50;92.90;;;;;;5091279;28;20215;-67
2021/01/28 07:11:39;;;;;;;67.15;11.05;;;3.50;92.70;;;;;;5063211;28;20204;-67
2021/01/28 07:14:07;;;;;;;71.70;12.82;;;3.50;93.20;;;;;;5095269;28;20228;-67
2021/01/28 07:16:38;;;;;;;72.07;13.52;;;3.50;93.10;;;;;;5095216;28;20216;-67
2021/01/28 07:19:13;;;;;;;72.78;14.25;;;3.50;92.70;;;;;;5095207;28;20208;-67
2021/01/28 07:21:43;;;;;;;73.28;13.63;;;3.50;92.70;;;;;;5095464;28;20288;-67
2021/01/28 07:24:24;;;;;;;73.63;11.90;;;3.50;92.70;;;;;;5095344;28;20271;-67
2021/01/28 07:26:53;;;;;;;71.05;12.70;;;3.50;92.50;;;;;;5095651;28;20200;-67
2021/01/28 07:29:59;;;;;;;71.32;12.27;;;3.40;92.50;;;;;;5094873;28;20208;-68
2021/01/28 07:32:51;;;;;;;68.88;12.10;;;3.40;92.60;;;;;;5095081;28;20208;-67
2021/01/28 07:35:40;;;;;;;78.18;13.68;;;3.40;92.50;;;;;;5077277;28;20231;-68
2021/01/28 07:38:42;;;;;;;73.28;13.75;;;3.40;92.50;;;;;;5074975;28;20296;-68
2021/01/28 07:41:28;;;;;;;76.40;14.07;;;3.40;92.50;;;;;;5060670;28;20292;-68
2021/01/28 07:44:15;;;;;;;71.75;12.52;;;3.40;92.50;;;;;;5073628;28;20232;-68
2021/01/28 07:46:42;;;;;;;69.85;12.05;;;3.40;92.60;;;;;;5074451;28;20578;-68
2021/01/28 07:49:16;;;;;;;74.32;12.77;;;3.40;92.70;;;;;;5081849;28;20200;-68
2021/01/28 07:51:43;;;;;;;73.68;12.63;;;3.50;92.90;;;;;;5095324;28;20204;-68
2021/01/28 07:54:36;;;;;;;74.07;12.43;;;3.50;93.20;;;;;;5094377;28;20224;-68
2021/01/28 07:57:06;;;;;;;69.93;12.75;;;3.50;93.30;;;;;;5094713;28;20256;-68
2021/01/28 07:59:38;;;;;;;70.57;12.45;;;3.60;93.60;;;;;;5094121;28;20230;-68
2021/01/28 08:02:17;;;;;;;72.40;11.88;;;3.70;93.80;;;;;;5093242;28;20230;-68
2021/01/28 08:04:46;;;;;;;71.95;11.35;;;3.70;94.00;;;;;;5094364;28;20228;-68
2021/01/28 08:07:14;;;;;;;73.32;11.80;;;3.70;94.10;;;;;;5073636;28;20253;-68
2021/01/28 08:09:49;;;;;;;69.75;12.23;;;3.80;94.20;;;;;;5074290;28;20292;-68
2021/01/28 08:12:24;;;;;;;74.45;12.80;;;3.80;94.30;;;;;;5074195;28;20626;-69
2021/01/28 08:14:52;;;;;;;69.95;12.00;;;3.80;94.40;;;;;;5074325;28;20610;-68
2021/01/28 08:17:24;;;;;;;75.43;11.18;;;3.90;94.60;;;;;;5073723;28;20232;-69
2021/01/28 08:19:51;;;;;;;78.10;11.23;;;3.90;94.60;;;;;;5074476;28;20668;-69
2021/01/28 08:22:21;;;;;;;72.82;12.95;;;3.90;94.80;;;;;;5071793;28;20205;-69
2021/01/28 08:24:57;;;;;;;70.82;11.82;;;4.00;94.90;;;;;;5091800;28;20221;-69
2021/01/28 08:27:34;;;;;;;68.90;10.57;;;4.00;95.10;;;;;;5094174;28;20228;-69
2021/01/28 08:30:03;;;;;;;75.72;12.00;;;4.00;95.00;;;;;;5093925;28;20661;-68
2021/01/28 08:32:32;;;;;;;71.68;11.00;;;4.00;95.10;;;;;;5093929;28;20317;-69
2021/01/28 08:34:59;;;;;;;70.22;12.15;;;4.00;95.20;;;;;;5093914;28;20641;-67
2021/01/28 08:37:29;;;;;;;70.38;11.32;;;4.10;95.30;;;;;;5093759;28;20238;-67
2021/01/28 08:39:56;;;;;;;76.43;11.98;;;4.10;95.40;;;;;;5093630;28;20254;-69
2021/01/28 08:42:25;;;;;;;82.05;12.43;;;4.10;95.60;;;;;;5093482;28;20215;-69
2021/01/28 08:45:11;;;;;;;79.40;15.50;;;4.10;95.70;;;;;;5093730;28;20298;-70
2021/01/28 08:47:38;;;;;;;76.72;12.45;;;4.10;95.80;;;;;;5093550;28;20239;-69
2021/01/28 08:50:08;;;;;;;74.57;12.60;;;4.20;95.90;;;;;;5093449;28;20251;-70
2021/01/28 08:52:35;;;;;;;69.45;12.00;;;4.20;95.90;;;;;;5082535;28;20211;-70
2021/01/28 08:55:10;;;;;;;68.63;11.23;;;4.20;96.00;;;;;;5085711;28;20228;-70
2021/01/28 08:57:37;;;;;;;70.00;10.00;;;4.30;96.10;;;;;;5093887;28;20227;-69
2021/01/28 09:00:09;;;;;;;67.40;10.70;;;4.30;96.10;;;;;;5093279;28;20215;-69
2021/01/28 09:02:39;;;;;;;70.93;10.68;;;4.30;96.50;;;;;;5093271;28;20736;-69
2021/01/28 09:05:15;;;;;;;68.88;11.05;;;4.40;97.00;;;;;;5093006;28;20649;-69
2021/01/28 09:07:48;;;;;;;67.45;9.93;;;4.40;97.10;;;;;;5093669;28;20234;-69
2021/01/28 09:10:27;;;;;;;63.63;8.65;;;4.40;98.70;;;;;;5093202;28;20300;-68
2021/01/28 09:13:11;;;;;;;69.15;10.95;;;4.40;98.80;;;;;;5092905;28;20793;-69
2021/01/28 09:15:39;;;;;;;68.20;9.70;;;4.50;98.10;;;;;;5092748;28;20270;-70
2021/01/28 09:18:07;;;;;;;69.97;10.55;;;4.50;99.90;;;;;;5092991;28;20208;-69
2021/01/28 09:20:35;;;;;;;69.93;12.38;;;4.50;99.90;;;;;;5093017;28;20204;-70
2021/01/28 09:23:07;;;;;;;69.85;11.68;;;4.50;99.90;;;;;;5091502;28;20234;-70
2021/01/28 09:25:34;;;;;;;75.75;14.30;;;4.60;99.90;;;;;;5092982;28;20201;-69
2021/01/28 09:28:03;;;;;;;70.28;12.95;;;4.60;99.90;;;;;;5092696;28;20215;-70
2021/01/28 09:30:34;;;;;;;67.05;11.27;;;4.60;99.90;;;;;;5092880;28;20688;-70
2021/01/28 09:33:24;;;;;;;66.97;11.52;;;4.70;99.90;;;;;;5092562;28;20220;-69
2021/01/28 09:36:13;;;;;;;66.85;10.90;;;4.70;99.90;;;;;;5091653;28;20209;-70
2021/01/28 09:38:40;;;;;;;68.82;10.15;;;4.80;99.90;;;;;;5092550;28;20596;-70
2021/01/28 09:41:16;;;;;;;64.53;9.93;;;4.80;99.90;;;;;;5092758;28;20292;-70
2021/01/28 09:43:43;;;;;;;63.10;8.27;;;4.90;99.90;;;;;;5092383;28;20714;-69
2021/01/28 09:46:14;;;;;;;62.13;7.18;;;4.90;99.90;;;;;;5092471;28;20201;-71
2021/01/28 09:48:42;;;;;;;58.97;6.00;;;5.00;99.90;;;;;;5092369;28;20592;-70
2021/01/28 09:51:11;;;;;;;62.30;6.82;;;5.00;99.90;;;;;;5092217;28;20204;-70
2021/01/28 09:53:38;;;;;;;60.20;5.80;;;5.10;99.90;;;;;;5091210;28;20653;-69
2021/01/28 09:56:04;;;;;;;61.47;5.97;;;5.10;99.90;;;;;;5086543;28;20220;-70
2021/01/28 09:58:31;;;;;;;59.15;5.70;;;5.20;99.90;;;;;;5072046;28;20219;-70
2021/01/28 10:00:57;;;;;;;64.53;5.95;;;5.20;99.90;;;;;;5071951;28;20209;-70
2021/01/28 10:03:24;;;;;;;58.30;5.38;;;5.30;99.90;;;;;;5071628;28;20467;-70
2021/01/28 10:05:51;;;;;;;59.30;5.78;;;5.30;99.90;;;;;;5071791;28;20206;-69
2021/01/28 10:08:18;;;;;;;60.90;5.72;;;5.40;99.90;;;;;;5072012;28;20205;-70
2021/01/28 10:10:45;;;;;;;61.28;6.35;;;5.40;99.90;;;;;;5072022;28;20611;-70
2021/01/28 10:13:14;;;;;;;58.47;4.97;;;5.40;99.90;;;;;;5071743;28;20221;-70
2021/01/28 10:15:41;;;;;;;59.08;4.45;;;5.50;99.90;;;;;;5071652;28;20423;-70
2021/01/28 10:18:07;;;;;;;58.47;4.55;;;5.50;99.90;;;;;;5071558;28;20208;-70
2021/01/28 10:20:34;;;;;;;59.15;4.53;;;5.70;99.90;;;;;;5071851;28;20201;-70
2021/01/28 10:23:03;;;;;;;59.13;4.07;;;5.70;99.90;;;;;;5071755;28;20205;-70
2021/01/28 10:25:30;;;;;;;56.85;3.60;;;5.80;99.90;;;;;;5070707;28;20302;-70
2021/01/28 10:27:57;;;;;;;56.90;4.10;;;5.90;99.90;;;;;;5084554;28;20809;-70
2021/01/28 10:30:24;;;;;;;57.97;4.50;;;5.90;99.90;;;;;;5091569;28;20212;-71
2021/01/28 10:32:55;;;;;;;57.88;4.30;;;5.90;99.90;;;;;;5091734;28;20223;-71
2021/01/28 10:35:23;;;;;;;57.10;3.95;;;6.00;99.90;;;;;;5091876;28;20215;-71
2021/01/28 10:37:50;;;;;;;60.80;4.15;;;6.10;99.90;;;;;;5091551;28;20228;-71
2021/01/28 10:40:18;;;;;;;59.30;4.30;;;6.00;99.90;;;;;;5091666;28;20200;-71
2021/01/28 10:42:45;;;;;;;56.58;3.95;;;6.00;99.90;;;;;;5091625;28;20247;-70
2021/01/28 10:45:16;;;;;;;57.50;3.80;;;6.10;99.90;;;;;;5091255;28;20229;-70
2021/01/28 10:47:42;;;;;;;58.92;4.15;;;6.10;99.90;;;;;;5091857;28;20205;-70
2021/01/28 10:50:09;;;;;;;56.58;3.90;;;6.20;99.90;;;;;;5091785;28;20200;-71
2021/01/28 10:52:35;;;;;;;56.90;3.80;;;6.20;99.90;;;;;;5091862;28;20565;-71
2021/01/28 10:55:03;;;;;;;56.95;3.65;;;6.20;99.90;;;;;;5091376;28;20224;-71
2021/01/28 10:57:30;;;;;;;58.17;4.60;;;6.20;99.90;;;;;;5090099;28;20722;-71
2021/01/28 10:59:56;;;;;;;57.53;4.15;;;6.30;99.90;;;;;;5091302;28;20300;-71
2021/01/28 11:02:22;;;;;;;58.35;4.30;;;6.30;99.90;;;;;;5091563;28;20205;-71
2021/01/28 11:04:49;;;;;;;60.30;3.80;;;6.40;99.90;;;;;;5091474;28;20236;-71
2021/01/28 11:07:15;;;;;;;58.03;3.65;;;6.50;99.90;;;;;;5091401;28;20215;-71
2021/01/28 11:09:42;;;;;;;59.25;3.60;;;6.60;99.90;;;;;;5091526;28;20231;-71
2021/01/28 11:12:09;;;;;;;56.88;3.55;;;6.60;99.90;;;;;;5091267;28;20205;-71
2021/01/28 11:14:37;;;;;;;56.95;3.00;;;6.70;99.90;;;;;;5091733;28;20232;-71
2021/01/28 11:17:03;;;;;;;58.00;3.38;;;6.70;99.90;;;;;;5091294;28;20233;-71
2021/01/28 11:19:29;;;;;;;57.55;3.55;;;6.70;99.90;;;;;;5091361;28;20221;-71
2021/01/28 11:21:56;;;;;;;57.83;3.37;;;6.80;99.90;;;;;;5091488;28;20210;-70
2021/01/28 11:24:22;;;;;;;57.40;3.47;;;6.80;99.90;;;;;;5091327;28;20475;-71
2021/01/28 11:26:48;;;;;;;56.63;3.53;;;6.80;99.90;;;;;;5084364;28;21066;-71
2021/01/28 11:29:16;;;;;;;56.90;3.33;;;6.80;96.70;;;;;;5078963;28;20208;-71
2021/01/28 11:31:44;;;;;;;56.97;3.47;;;6.80;99.90;;;;;;5091622;28;20898;-71
2021/01/28 11:34:10;;;;;;;57.70;3.60;;;6.80;96.80;;;;;;5090813;28;20475;-71
2021/01/28 11:36:36;;;;;;;56.58;3.00;;;6.80;97.10;;;;;;5091163;28;20713;-71
2021/01/28 11:39:03;;;;;;;56.90;3.00;;;6.90;95.60;;;;;;5091191;28;20292;-71
2021/01/28 11:41:29;;;;;;;56.50;2.90;;;6.90;95.50;;;;;;5091283;28;20210;-71
2021/01/28 11:43:55;;;;;;;56.05;3.08;;;7.00;95.30;;;;;;5091482;28;20466;-70
2021/01/28 11:46:22;;;;;;;56.45;3.10;;;7.20;95.60;;;;;;5091527;28;20255;-70
2021/01/28 11:48:49;;;;;;;57.07;3.40;;;7.30;96.30;;;;;;5091317;28;20242;-71
2021/01/28 11:51:15;;;;;;;55.73;2.90;;;7.30;95.70;;;;;;5091470;28;20456;-71
2021/01/28 11:53:41;;;;;;;55.80;2.97;;;7.40;93.50;;;;;;5091429;28;20690;-71
2021/01/28 11:56:08;;;;;;;56.40;3.03;;;7.40;92.60;;;;;;5091285;28;20475;-70
2021/01/28 11:58:34;;;;;;;56.37;3.57;;;7.40;91.50;;;;;;5091974;28;20536;-70
2021/01/28 12:01:00;;;;;;;56.37;3.13;;;7.40;91.80;;;;;;5094714;28;20447;-71
2021/01/28 12:03:26;;;;;;;57.17;3.40;;;7.50;89.80;;;;;;5094529;28;20471;-70
2021/01/28 12:05:54;;;;;;;56.00;3.10;;;7.40;87.50;;;;;;5094612;28;20448;-71
2021/01/28 12:08:20;;;;;;;57.33;3.50;;;7.40;87.10;;;;;;5094373;28;20865;-70
2021/01/28 12:10:46;;;;;;;56.95;3.25;;;7.40;91.20;;;;;;5094360;28;20444;-70
2021/01/28 12:13:13;;;;;;;57.50;3.20;;;7.50;89.40;;;;;;5094334;28;20302;-70
2021/01/28 12:15:40;;;;;;;56.70;3.20;;;7.50;90.20;;;;;;5094278;28;20502;-70
2021/01/28 12:18:06;;;;;;;56.07;3.00;;;7.50;89.40;;;;;;5094294;28;20487;-71
2021/01/28 12:20:33;;;;;;;56.80;2.73;;;7.60;90.10;;;;;;5094252;28;20469;-70
2021/01/28 12:23:00;;;;;;;61.90;5.47;;;7.60;91.20;;;;;;5094102;28;20911;-70
2021/01/28 12:25:26;;;;;;;56.70;3.07;;;7.70;93.30;;;;;;5094537;28;20457;-70
2021/01/28 12:27:53;;;;;;;58.07;3.40;;;7.70;91.70;;;;;;5094466;28;20445;-70
2021/01/28 12:30:22;;;;;;;59.40;4.10;;;7.70;89.70;;;;;;5091792;28;20451;-69
2021/01/28 12:32:48;;;;;;;57.50;3.33;;;7.80;85.40;;;;;;5073604;28;20957;-70
2021/01/28 12:35:16;;;;;;;59.70;6.03;;;7.80;82.90;;;;;;5073928;28;20469;-70
2021/01/28 12:37:43;;;;;;;60.13;3.13;;;7.80;87.60;;;;;;5073570;28;20481;-71
2021/01/28 12:40:14;;;;;;;57.03;3.33;;;7.90;86.90;;;;;;5073957;28;20446;-70
2021/01/28 12:42:40;;;;;;;56.30;2.97;;;8.00;86.60;;;;;;5073425;28;20964;-70
2021/01/28 12:45:07;;;;;;;57.57;3.03;;;8.00;85.60;;;;;;5073622;28;20470;-71
2021/01/28 12:47:34;;;;;;;57.23;3.17;;;8.00;87.10;;;;;;5073883;28;20514;-70
2021/01/28 12:50:00;;;;;;;56.20;3.10;;;8.00;86.10;;;;;;5073652;28;20453;-70
2021/01/28 12:52:26;;;;;;;56.53;3.10;;;8.00;85.80;;;;;;5073944;28;20453;-70
2021/01/28 12:54:53;;;;;;;57.17;2.80;;;8.10;86.40;;;;;;5073758;28;20528;-70
2021/01/28 12:57:20;;;;;;;56.37;3.40;;;8.20;86.40;;;;;;5073338;28;20571;-70